1898 NOT_NAMED (1898287N16118)


IBTrACS version v04r00. Visit IBTrACS website for data access.
Please direct all questions to the IBTrACS Q and A forum

Storm track - Intensity - Wind Radii - Intensity Data - Source Data - All data

Summary Information

Storm ID 1898287N16118
Start Oct 14 04Z
End Oct 21 04Z
ATCF IDs
Track status Best track data.

Storm track plot

Map of storm track

Intensity plots

No Intensity information for this storm


Radial wind information

No radial wind information for this storm


Position and Intensity Table

BASIN ISO_TIME_________ NATURE LAT LON
degrees north degrees east
WP 1898-10-14 04:00:00 NR 16.00 117.80
WP 06:00:00 NR 16.06 117.86
WP 09:00:00 NR 16.15 117.95
WP 12:00:00 NR 16.22 118.02
WP 15:00:00 NR 16.28 118.08
WP 16:00:00 NR 16.30 118.10
WP 18:00:00 NR 16.32 118.13
WP 21:00:00 NR 16.35 118.15
WP 1898-10-15 00:00:00 NR 16.39 118.17
WP 03:00:00 NR 16.46 118.19
WP 04:00:00 NR 16.50 118.20
WP 06:00:00 NR 16.60 118.24
WP 09:00:00 NR 16.79 118.31
WP 12:00:00 NR 17.00 118.37
WP 15:00:00 NR 17.23 118.40
WP 16:00:00 NR 17.30 118.40
WP 18:00:00 NR 17.44 118.38
WP 21:00:00 NR 17.65 118.33
WP 1898-10-16 00:00:00 NR 17.86 118.24
WP 03:00:00 NR 18.04 118.14
WP 04:00:00 NR 18.10 118.10
WP 06:00:00 NR 18.20 118.02
WP 09:00:00 NR 18.33 117.89
WP 12:00:00 NR 18.44 117.76
WP 15:00:00 NR 18.56 117.64
WP 16:00:00 NR 18.60 117.60
WP 18:00:00 NR 18.69 117.54
WP 21:00:00 NR 18.82 117.45
WP 1898-10-17 00:00:00 NR 18.97 117.38
WP 03:00:00 NR 19.14 117.32
WP 04:00:00 NR 19.20 117.30
WP 06:00:00 NR 19.33 117.26
WP 09:00:00 NR 19.55 117.20
WP 12:00:00 NR 19.78 117.15
WP 15:00:00 NR 20.02 117.11
WP 16:00:00 NR 20.10 117.10
WP 18:00:00 NR 20.26 117.09
WP 21:00:00 NR 20.49 117.08
WP 1898-10-18 00:00:00 NR 20.72 117.08
WP 03:00:00 NR 20.93 117.09
WP 04:00:00 NR 21.00 117.10
WP 06:00:00 NR 21.13 117.11
WP 09:00:00 NR 21.30 117.13
WP 12:00:00 NR 21.47 117.15
WP 15:00:00 NR 21.64 117.19
WP 16:00:00 NR 21.70 117.20
WP 18:00:00 NR 21.83 117.23
WP 21:00:00 NR 22.03 117.27
WP 1898-10-19 00:00:00 NR 22.23 117.32
WP 03:00:00 NR 22.43 117.38
WP 04:00:00 NR 22.50 117.40
WP 06:00:00 NR 22.64 117.43
WP 09:00:00 NR 22.85 117.48
WP 12:00:00 NR 23.05 117.56
WP 15:00:00 NR 23.24 117.66
WP 16:00:00 NR 23.30 117.70
WP 18:00:00 NR 23.40 117.77
WP 21:00:00 NR 23.54 117.92
WP 1898-10-20 00:00:00 NR 23.68 118.11
WP 03:00:00 NR 23.84 118.39
WP 04:00:00 NR 23.90 118.50
WP 06:00:00 NR 24.05 118.74
WP 09:00:00 NR 24.30 119.17
WP 12:00:00 NR 24.56 119.69
WP 15:00:00 NR 24.82 120.29
WP 16:00:00 NR 24.90 120.50
WP 18:00:00 NR 25.06 120.95
WP 21:00:00 NR 25.27 121.68
WP 1898-10-21 00:00:00 NR 25.46 122.44
WP 03:00:00 NR 25.64 123.23
WP 04:00:00 NR 25.70 123.50

Source Information

Agency Information
USA
TOKYO
CMA
HKO
NEWDELHI
REUNION
BOM
NADI
WELLINGTON
DS824
TD9636 cons_worldwide_trop_cyclone_18710101-19891231-003:Line=1888
TD9635
NEUMANN
MLC

All available IBTrACS Data

SEASON BASIN SUBBASIN ISO_TIME_________ NATURE LAT LON DIST2LAND LANDFALL IFLAG USA SSHS TD9636 LAT TD9636 LON TD9636 STAGE STORM SPEED STORM DIR
Year degrees north degrees east km km 1 degrees north degrees east kts degrees
1898 WP MM 1898-10-14 04:00:00 NR 16.00 117.80 203 192 __________O___ -1 16.00 117.80 3 3 40
1898 WP MM 06:00:00 NR 16.06 117.86 192 192 __________P___ -1 16.06 117.86 3 2 43
1898 WP MM 09:00:00 NR 16.15 117.95 192 183 __________P___ -1 16.15 117.95 3 2 44
1898 WP MM 12:00:00 NR 16.22 118.02 183 174 __________P___ -1 16.22 118.02 3 2 44
1898 WP MM 15:00:00 NR 16.28 118.08 174 174 __________P___ -1 16.28 118.08 3 2 48
1898 WP MM 16:00:00 NR 16.30 118.10 174 174 __________O___ -1 16.30 118.10 4 1 47
1898 WP MM 18:00:00 NR 16.32 118.13 174 166 __________P___ -1 16.32 118.13 4 1 49
1898 WP MM 21:00:00 NR 16.35 118.15 166 166 __________P___ -1 16.35 118.15 4 1 31
1898 WP MM 1898-10-15 00:00:00 NR 16.39 118.17 166 166 __________P___ -1 16.39 118.17 4 1 18
1898 WP MM 03:00:00 NR 16.46 118.19 169 169 __________P___ -1 16.46 118.19 4 2 24
1898 WP MM 04:00:00 NR 16.50 118.20 169 169 __________O___ -1 16.50 118.20 4 3 19
1898 WP MM 06:00:00 NR 16.60 118.24 173 163 __________P___ -1 16.60 118.24 4 4 20
1898 WP MM 09:00:00 NR 16.79 118.31 169 163 __________P___ -1 16.79 118.31 4 4 16
1898 WP MM 12:00:00 NR 17.00 118.37 168 168 __________P___ -1 17.00 118.37 4 5 11
1898 WP MM 15:00:00 NR 17.23 118.40 179 179 __________P___ -1 17.23 118.40 4 5 7
1898 WP MM 16:00:00 NR 17.30 118.40 186 186 __________O___ -1 17.30 118.40 4 4 353
1898 WP MM 18:00:00 NR 17.44 118.38 193 200 __________P___ -1 17.44 118.38 4 4 348
1898 WP MM 21:00:00 NR 17.65 118.33 212 212 __________P___ -1 17.65 118.33 4 4 342
1898 WP MM 1898-10-16 00:00:00 NR 17.86 118.24 224 224 __________P___ -1 17.86 118.24 4 4 335
1898 WP MM 03:00:00 NR 18.04 118.14 237 239 __________P___ -1 18.04 118.14 4 4 330
1898 WP MM 04:00:00 NR 18.10 118.10 239 239 __________O___ -1 18.10 118.10 4 4 325
1898 WP MM 06:00:00 NR 18.20 118.02 252 252 __________P___ -1 18.20 118.02 4 4 319
1898 WP MM 09:00:00 NR 18.33 117.89 265 265 __________P___ -1 18.33 117.89 4 3 315
1898 WP MM 12:00:00 NR 18.44 117.76 279 279 __________P___ -1 18.44 117.76 4 3 314
1898 WP MM 15:00:00 NR 18.56 117.64 306 306 __________P___ -1 18.56 117.64 4 3 316
1898 WP MM 16:00:00 NR 18.60 117.60 306 306 __________O___ -1 18.60 117.60 4 3 324
1898 WP MM 18:00:00 NR 18.69 117.54 320 320 __________P___ -1 18.69 117.54 4 3 328
1898 WP MM 21:00:00 NR 18.82 117.45 324 334 __________P___ -1 18.82 117.45 4 3 332
1898 WP MM 1898-10-17 00:00:00 NR 18.97 117.38 341 341 __________P___ -1 18.97 117.38 4 3 338
1898 WP MM 03:00:00 NR 19.14 117.32 355 355 __________P___ -1 19.14 117.32 4 4 340
1898 WP MM 04:00:00 NR 19.20 117.30 358 358 __________O___ -1 19.20 117.30 4 4 344
1898 WP MM 06:00:00 NR 19.33 117.26 361 361 __________P___ -1 19.33 117.26 4 4 344
1898 WP MM 09:00:00 NR 19.55 117.20 375 351 __________P___ -1 19.55 117.20 4 5 347
1898 WP MM 12:00:00 NR 19.78 117.15 351 329 __________P___ -1 19.78 117.15 4 5 351
1898 WP MM 15:00:00 NR 20.02 117.11 329 319 __________P___ -1 20.02 117.11 4 5 353
1898 WP MM 16:00:00 NR 20.10 117.10 319 297 __________O___ -1 20.10 117.10 4 5 358
1898 WP MM 18:00:00 NR 20.26 117.09 297 275 __________P___ -1 20.26 117.09 4 5 0
1898 WP MM 21:00:00 NR 20.49 117.08 275 253 __________P___ -1 20.49 117.08 4 5 357
1898 WP MM 1898-10-18 00:00:00 NR 20.72 117.08 253 232 __________P___ -1 20.72 117.08 4 4 3
1898 WP MM 03:00:00 NR 20.93 117.09 232 221 __________P___ -1 20.93 117.09 4 4 5
1898 WP MM 04:00:00 NR 21.00 117.10 221 210 __________O___ -1 21.00 117.10 4 4 2
1898 WP MM 06:00:00 NR 21.13 117.11 210 189 __________P___ -1 21.13 117.11 4 4 3
1898 WP MM 09:00:00 NR 21.30 117.13 189 172 __________P___ -1 21.30 117.13 4 3 8
1898 WP MM 12:00:00 NR 21.47 117.15 172 162 __________P___ -1 21.47 117.15 4 3 10
1898 WP MM 15:00:00 NR 21.64 117.19 162 152 __________P___ -1 21.64 117.19 4 4 10
1898 WP MM 16:00:00 NR 21.70 117.20 152 142 __________O___ -1 21.70 117.20 4 4 10
1898 WP MM 18:00:00 NR 21.83 117.23 142 129 __________P___ -1 21.83 117.23 4 4 13
1898 WP MM 21:00:00 NR 22.03 117.27 129 113 __________P___ -1 22.03 117.27 4 4 12
1898 WP MM 1898-10-19 00:00:00 NR 22.23 117.32 113 106 __________P___ -1 22.23 117.32 4 4 15
1898 WP MM 03:00:00 NR 22.43 117.38 107 102 __________P___ -1 22.43 117.38 4 4 13
1898 WP MM 04:00:00 NR 22.50 117.40 102 98 __________O___ -1 22.50 117.40 4 4 14
1898 WP MM 06:00:00 NR 22.64 117.43 98 88 __________P___ -1 22.64 117.43 4 4 13
1898 WP MM 09:00:00 NR 22.85 117.48 88 69 __________P___ -1 22.85 117.48 4 4 16
1898 WP MM 12:00:00 NR 23.05 117.56 75 55 __________P___ -1 23.05 117.56 4 4 22
1898 WP MM 15:00:00 NR 23.24 117.66 56 45 __________P___ -1 23.24 117.66 4 4 27
1898 WP MM 16:00:00 NR 23.30 117.70 45 35 __________O___ -1 23.30 117.70 4 4 32
1898 WP MM 18:00:00 NR 23.40 117.77 39 30 __________P___ -1 23.40 117.77 4 4 39
1898 WP MM 21:00:00 NR 23.54 117.92 37 32 __________P___ -1 23.54 117.92 4 4 48
1898 WP MM 1898-10-20 00:00:00 NR 23.68 118.11 37 37 __________P___ -1 23.68 118.11 4 5 55
1898 WP MM 03:00:00 NR 23.84 118.39 55 51 __________P___ -1 23.84 118.39 4 6 58
1898 WP MM 04:00:00 NR 23.90 118.50 60 55 __________O___ -1 23.90 118.50 4 8 57
1898 WP MM 06:00:00 NR 24.05 118.74 56 45 __________P___ -1 24.05 118.74 4 9 57
1898 WP MM 09:00:00 NR 24.30 119.17 60 60 __________P___ -1 24.30 119.17 4 10 59
1898 WP MM 12:00:00 NR 24.56 119.69 75 46 __________P___ -1 24.56 119.69 4 11 63
1898 WP MM 15:00:00 NR 24.82 120.29 46 37 __________P___ -1 24.82 120.29 4 12 65
1898 WP MM 16:00:00 NR 24.90 120.50 39 10 __________O___ -1 24.90 120.50 7 13 69
1898 WP MM 18:00:00 NR 25.06 120.95 11 0 __________P___ -1 25.06 120.95 7 14 71
1898 WP MM 21:00:00 NR 25.27 121.68 15 15 __________P___ -1 25.27 121.68 7 14 73
1898 WP MM 1898-10-21 00:00:00 NR 25.46 122.44 68 75 __________P___ -1 25.46 122.44 7 15 75
1898 WP MM 03:00:00 NR 25.64 123.23 137 152 __________P___ -1 25.64 123.23 7 15 76
1898 WP MM 04:00:00 NR 25.70 123.50 169 __________O___ -1 25.70 123.50 7 15 76